sensor_id;sensor_type;location;lat;lon;timestamp;pressure;altitude;pressure_sealevel;temperature;humidity
20156;BME280;10238;49.556;10.956;2022-10-16T00:00:14;98234.84;;;14.22;100.00
20156;BME280;10238;49.556;10.956;2022-10-16T00:03:02;98246.50;;;14.29;100.00
20156;BME280;10238;49.556;10.956;2022-10-16T00:05:50;98259.50;;;14.32;100.00
20156;BME280;10238;49.556;10.956;2022-10-16T00:08:39;98260.53;;;14.31;100.00
20156;BME280;10238;49.556;10.956;2022-10-16T00:11:29;98259.19;;;14.27;100.00
20156;BME280;10238;49.556;10.956;2022-10-16T00:14:19;98253.22;;;14.25;100.00
20156;BME280;10238;49.556;10.956;2022-10-16T00:17:12;98258.75;;;14.24;100.00
20156;BME280;10238;49.556;10.956;2022-10-16T00:19:59;98257.22;;;14.21;100.00
20156;BME280;10238;49.556;10.956;2022-10-16T00:22:47;98258.91;;;14.22;100.00
20156;BME280;10238;49.556;10.956;2022-10-16T00:25:36;98257.38;;;14.20;100.00
20156;BME280;10238;49.556;10.956;2022-10-16T00:28:24;98263.94;;;14.17;100.00
20156;BME280;10238;49.556;10.956;2022-10-16T00:31:13;98263.31;;;14.15;100.00
20156;BME280;10238;49.556;10.956;2022-10-16T00:34:00;98260.16;;;14.12;100.00
20156;BME280;10238;49.556;10.956;2022-10-16T00:36:48;98254.44;;;14.15;100.00
20156;BME280;10238;49.556;10.956;2022-10-16T00:39:36;98248.56;;;14.19;100.00
20156;BME280;10238;49.556;10.956;2022-10-16T00:42:26;98256.28;;;14.14;100.00
20156;BME280;10238;49.556;10.956;2022-10-16T00:45:16;98247.63;;;14.12;100.00
20156;BME280;10238;49.556;10.956;2022-10-16T00:48:04;98243.44;;;14.10;100.00
20156;BME280;10238;49.556;10.956;2022-10-16T00:50:52;98254.31;;;14.08;100.00
20156;BME280;10238;49.556;10.956;2022-10-16T00:53:43;98264.38;;;14.06;100.00
20156;BME280;10238;49.556;10.956;2022-10-16T00:56:33;98268.03;;;14.05;100.00
20156;BME280;10238;49.556;10.956;2022-10-16T00:59:27;98271.56;;;14.06;100.00
20156;BME280;10238;49.556;10.956;2022-10-16T01:02:17;98277.75;;;14.06;100.00
20156;BME280;10238;49.556;10.956;2022-10-16T01:05:06;98267.41;;;14.03;100.00
20156;BME280;10238;49.556;10.956;2022-10-16T01:08:07;98265.09;;;14.00;100.00
20156;BME280;10238;49.556;10.956;2022-10-16T01:11:05;98252.72;;;13.99;100.00
20156;BME280;10238;49.556;10.956;2022-10-16T01:14:06;98258.53;;;14.03;100.00
20156;BME280;10238;49.556;10.956;2022-10-16T01:17:04;98266.69;;;14.09;100.00
20156;BME280;10238;49.556;10.956;2022-10-16T01:20:07;98269.63;;;14.14;100.00
20156;BME280;10238;49.556;10.956;2022-10-16T01:23:26;98270.66;;;14.13;100.00
20156;BME280;10238;49.556;10.956;2022-10-16T01:26:32;98267.31;;;14.11;100.00
20156;BME280;10238;49.556;10.956;2022-10-16T01:29:30;98266.16;;;14.14;100.00
20156;BME280;10238;49.556;10.956;2022-10-16T01:32:28;98265.13;;;14.15;100.00
20156;BME280;10238;49.556;10.956;2022-10-16T01:35:27;98281.81;;;14.17;100.00
20156;BME280;10238;49.556;10.956;2022-10-16T01:38:23;98282.38;;;14.12;100.00
20156;BME280;10238;49.556;10.956;2022-10-16T01:41:21;98283.00;;;14.14;100.00
20156;BME280;10238;49.556;10.956;2022-10-16T01:44:19;98288.00;;;14.17;100.00
20156;BME280;10238;49.556;10.956;2022-10-16T01:47:14;98289.47;;;14.20;100.00
20156;BME280;10238;49.556;10.956;2022-10-16T01:50:04;98297.03;;;14.16;100.00
20156;BME280;10238;49.556;10.956;2022-10-16T01:52:56;98299.41;;;14.11;100.00
20156;BME280;10238;49.556;10.956;2022-10-16T01:55:49;98302.56;;;14.15;100.00
20156;BME280;10238;49.556;10.956;2022-10-16T01:58:41;98310.41;;;14.16;100.00
20156;BME280;10238;49.556;10.956;2022-10-16T02:01:34;98312.06;;;14.17;100.00
20156;BME280;10238;49.556;10.956;2022-10-16T02:04:32;98311.22;;;14.17;100.00
20156;BME280;10238;49.556;10.956;2022-10-16T02:07:20;98308.00;;;14.21;100.00
20156;BME280;10238;49.556;10.956;2022-10-16T02:10:10;98315.72;;;14.24;100.00
20156;BME280;10238;49.556;10.956;2022-10-16T02:13:03;98319.06;;;14.18;100.00
20156;BME280;10238;49.556;10.956;2022-10-16T02:15:52;98312.38;;;14.22;100.00
20156;BME280;10238;49.556;10.956;2022-10-16T02:18:41;98309.38;;;14.25;100.00
20156;BME280;10238;49.556;10.956;2022-10-16T02:21:39;98309.19;;;14.27;100.00
20156;BME280;10238;49.556;10.956;2022-10-16T02:24:36;98309.19;;;14.27;100.00
20156;BME280;10238;49.556;10.956;2022-10-16T02:27:33;98313.34;;;14.29;100.00
20156;BME280;10238;49.556;10.956;2022-10-16T02:30:30;98303.50;;;14.30;100.00
20156;BME280;10238;49.556;10.956;2022-10-16T02:33:23;98297.13;;;14.31;100.00
20156;BME280;10238;49.556;10.956;2022-10-16T02:36:12;98304.97;;;14.32;100.00
20156;BME280;10238;49.556;10.956;2022-10-16T02:39:04;98304.13;;;14.32;100.00
20156;BME280;10238;49.556;10.956;2022-10-16T02:41:52;98306.00;;;14.31;100.00
20156;BME280;10238;49.556;10.956;2022-10-16T02:44:39;98310.84;;;14.28;100.00
20156;BME280;10238;49.556;10.956;2022-10-16T02:47:27;98301.97;;;14.27;100.00
20156;BME280;10238;49.556;10.956;2022-10-16T02:50:16;98301.00;;;14.28;100.00
20156;BME280;10238;49.556;10.956;2022-10-16T02:53:03;98299.97;;;14.29;100.00
20156;BME280;10238;49.556;10.956;2022-10-16T02:55:52;98309.03;;;14.28;100.00
20156;BME280;10238;49.556;10.956;2022-10-16T02:58:40;98304.66;;;14.27;100.00
20156;BME280;10238;49.556;10.956;2022-10-16T03:01:27;98318.22;;;14.26;100.00
20156;BME280;10238;49.556;10.956;2022-10-16T03:04:15;98312.03;;;14.25;100.00
20156;BME280;10238;49.556;10.956;2022-10-16T03:07:03;98323.72;;;14.24;100.00
20156;BME280;10238;49.556;10.956;2022-10-16T03:09:51;98316.03;;;14.21;100.00
20156;BME280;10238;49.556;10.956;2022-10-16T03:12:40;98325.06;;;14.20;100.00
20156;BME280;10238;49.556;10.956;2022-10-16T03:15:28;98319.72;;;14.20;100.00
20156;BME280;10238;49.556;10.956;2022-10-16T03:18:15;98312.72;;;14.19;100.00
20156;BME280;10238;49.556;10.956;2022-10-16T03:21:03;98316.22;;;14.20;100.00
20156;BME280;10238;49.556;10.956;2022-10-16T03:23:51;98315.41;;;14.19;100.00
20156;BME280;10238;49.556;10.956;2022-10-16T03:26:39;98322.94;;;14.16;100.00
20156;BME280;10238;49.556;10.956;2022-10-16T03:29:27;98321.28;;;14.15;100.00
20156;BME280;10238;49.556;10.956;2022-10-16T03:32:15;98321.63;;;14.12;100.00
20156;BME280;10238;49.556;10.956;2022-10-16T03:35:07;98318.66;;;14.07;100.00
20156;BME280;10238;49.556;10.956;2022-10-16T03:37:54;98325.72;;;14.00;100.00
20156;BME280;10238;49.556;10.956;2022-10-16T03:40:42;98320.53;;;13.98;100.00
20156;BME280;10238;49.556;10.956;2022-10-16T03:43:30;98322.03;;;14.01;100.00
20156;BME280;10238;49.556;10.956;2022-10-16T03:46:19;98321.84;;;14.02;100.00
20156;BME280;10238;49.556;10.956;2022-10-16T03:49:07;98331.38;;;14.05;100.00
20156;BME280;10238;49.556;10.956;2022-10-16T03:51:55;98326.50;;;14.08;100.00
20156;BME280;10238;49.556;10.956;2022-10-16T03:54:43;98330.19;;;14.07;100.00
20156;BME280;10238;49.556;10.956;2022-10-16T03:57:30;98326.03;;;14.05;100.00
20156;BME280;10238;49.556;10.956;2022-10-16T04:00:18;98329.34;;;14.07;100.00
20156;BME280;10238;49.556;10.956;2022-10-16T04:03:07;98333.97;;;14.13;100.00
20156;BME280;10238;49.556;10.956;2022-10-16T04:05:55;98335.00;;;14.12;100.00
20156;BME280;10238;49.556;10.956;2022-10-16T04:08:43;98341.81;;;14.14;100.00
20156;BME280;10238;49.556;10.956;2022-10-16T04:11:31;98349.66;;;14.16;100.00
20156;BME280;10238;49.556;10.956;2022-10-16T04:14:19;98353.34;;;14.15;100.00
20156;BME280;10238;49.556;10.956;2022-10-16T04:17:06;98348.00;;;14.15;100.00
20156;BME280;10238;49.556;10.956;2022-10-16T04:19:55;98349.66;;;14.16;100.00
20156;BME280;10238;49.556;10.956;2022-10-16T04:22:42;98351.72;;;14.14;100.00
20156;BME280;10238;49.556;10.956;2022-10-16T04:25:31;98348.84;;;14.15;100.00
20156;BME280;10238;49.556;10.956;2022-10-16T04:28:18;98361.19;;;14.16;100.00
20156;BME280;10238;49.556;10.956;2022-10-16T04:31:07;98350.50;;;14.16;100.00
20156;BME280;10238;49.556;10.956;2022-10-16T04:33:55;98352.16;;;14.17;100.00
20156;BME280;10238;49.556;10.956;2022-10-16T04:36:46;98351.81;;;14.20;100.00
20156;BME280;10238;49.556;10.956;2022-10-16T04:39:34;98342.13;;;14.19;100.00
20156;BME280;10238;49.556;10.956;2022-10-16T04:42:22;98354.66;;;14.19;100.00
20156;BME280;10238;49.556;10.956;2022-10-16T04:45:10;98356.50;;;14.18;100.00
20156;BME280;10238;49.556;10.956;2022-10-16T04:48:02;98353.34;;;14.15;100.00
20156;BME280;10238;49.556;10.956;2022-10-16T04:50:50;98351.88;;;14.12;100.00
20156;BME280;10238;49.556;10.956;2022-10-16T04:53:41;98356.22;;;14.13;100.00
20156;BME280;10238;49.556;10.956;2022-10-16T04:56:29;98357.88;;;14.14;100.00
20156;BME280;10238;49.556;10.956;2022-10-16T04:59:17;98359.53;;;14.15;100.00
20156;BME280;10238;49.556;10.956;2022-10-16T05:02:05;98352.69;;;14.13;100.00
20156;BME280;10238;49.556;10.956;2022-10-16T05:04:53;98348.53;;;14.10;100.00
20156;BME280;10238;49.556;10.956;2022-10-16T05:07:41;98356.91;;;14.07;100.00
20156;BME280;10238;49.556;10.956;2022-10-16T05:10:30;98363.44;;;14.05;100.00
20156;BME280;10238;49.556;10.956;2022-10-16T05:13:18;98360.94;;;14.03;100.00
20156;BME280;10238;49.556;10.956;2022-10-16T05:16:07;98352.63;;;13.98;100.00
20156;BME280;10238;49.556;10.956;2022-10-16T05:18:54;98359.50;;;13.93;100.00
20156;BME280;10238;49.556;10.956;2022-10-16T05:22:02;98366.03;;;13.90;100.00
20156;BME280;10238;49.556;10.956;2022-10-16T05:24:50;98371.72;;;13.87;100.00
20156;BME280;10238;49.556;10.956;2022-10-16T05:27:40;98375.75;;;13.83;100.00
20156;BME280;10238;49.556;10.956;2022-10-16T05:30:28;98378.97;;;13.79;100.00
20156;BME280;10238;49.556;10.956;2022-10-16T05:33:17;98383.47;;;13.78;100.00
20156;BME280;10238;49.556;10.956;2022-10-16T05:36:09;98397.78;;;13.85;100.00
20156;BME280;10238;49.556;10.956;2022-10-16T05:38:57;98400.09;;;13.88;100.00
20156;BME280;10238;49.556;10.956;2022-10-16T05:41:45;98396.47;;;13.81;100.00
20156;BME280;10238;49.556;10.956;2022-10-16T05:44:34;98404.16;;;13.76;100.00
20156;BME280;10238;49.556;10.956;2022-10-16T05:47:22;98401.84;;;13.73;100.00
20156;BME280;10238;49.556;10.956;2022-10-16T05:50:10;98408.88;;;13.74;100.00
20156;BME280;10238;49.556;10.956;2022-10-16T05:52:58;98414.84;;;13.76;100.00
20156;BME280;10238;49.556;10.956;2022-10-16T05:55:52;98413.88;;;13.77;100.00
20156;BME280;10238;49.556;10.956;2022-10-16T05:58:40;98413.19;;;13.75;100.00
20156;BME280;10238;49.556;10.956;2022-10-16T06:01:30;98420.53;;;13.81;100.00
20156;BME280;10238;49.556;10.956;2022-10-16T06:04:17;98417.34;;;13.86;100.00
20156;BME280;10238;49.556;10.956;2022-10-16T06:07:05;98421.50;;;13.88;100.00
20156;BME280;10238;49.556;10.956;2022-10-16T06:09:54;98427.19;;;13.85;100.00
20156;BME280;10238;49.556;10.956;2022-10-16T06:12:42;98433.19;;;13.87;100.00
20156;BME280;10238;49.556;10.956;2022-10-16T06:15:30;98434.84;;;13.88;100.00
20156;BME280;10238;49.556;10.956;2022-10-16T06:18:19;98426.47;;;13.91;100.00
20156;BME280;10238;49.556;10.956;2022-10-16T06:21:11;98426.16;;;13.94;100.00
20156;BME280;10238;49.556;10.956;2022-10-16T06:24:02;98414.78;;;13.92;100.00
20156;BME280;10238;49.556;10.956;2022-10-16T06:26:50;98424.31;;;13.95;100.00
20156;BME280;10238;49.556;10.956;2022-10-16T06:29:38;98426.16;;;13.94;100.00
20156;BME280;10238;49.556;10.956;2022-10-16T06:32:27;98437.13;;;13.99;100.00
20156;BME280;10238;49.556;10.956;2022-10-16T06:35:18;98436.13;;;14.00;100.00
20156;BME280;10238;49.556;10.956;2022-10-16T06:38:05;98419.09;;;14.01;100.00
20156;BME280;10238;49.556;10.956;2022-10-16T06:40:54;98423.41;;;14.02;100.00
20156;BME280;10238;49.556;10.956;2022-10-16T06:43:42;98432.59;;;14.08;100.00
20156;BME280;10238;49.556;10.956;2022-10-16T06:46:31;98433.56;;;14.15;100.00
20156;BME280;10238;49.556;10.956;2022-10-16T06:49:19;98430.38;;;14.19;100.00
20156;BME280;10238;49.556;10.956;2022-10-16T06:52:10;98446.06;;;14.22;100.00
20156;BME280;10238;49.556;10.956;2022-10-16T06:54:58;98458.44;;;14.23;100.00
20156;BME280;10238;49.556;10.956;2022-10-16T06:57:47;98465.44;;;14.24;100.00
20156;BME280;10238;49.556;10.956;2022-10-16T07:00:35;98469.63;;;14.27;100.00
20156;BME280;10238;49.556;10.956;2022-10-16T07:03:24;98477.47;;;14.28;100.00
20156;BME280;10238;49.556;10.956;2022-10-16T07:06:14;98487.00;;;14.31;100.00
20156;BME280;10238;49.556;10.956;2022-10-16T07:09:06;98493.19;;;14.31;100.00
20156;BME280;10238;49.556;10.956;2022-10-16T07:11:54;98486.81;;;14.32;100.00
20156;BME280;10238;49.556;10.956;2022-10-16T07:14:42;98492.78;;;14.34;100.00
20156;BME280;10238;49.556;10.956;2022-10-16T07:17:30;98503.16;;;14.37;100.00
20156;BME280;10238;49.556;10.956;2022-10-16T07:20:18;98506.84;;;14.36;100.00
20156;BME280;10238;49.556;10.956;2022-10-16T07:23:06;98513.50;;;14.40;100.00
20156;BME280;10238;49.556;10.956;2022-10-16T07:25:55;98516.31;;;14.47;100.00
20156;BME280;10238;49.556;10.956;2022-10-16T07:28:43;98519.13;;;14.53;100.00
20156;BME280;10238;49.556;10.956;2022-10-16T07:31:34;98531.16;;;14.57;100.00
20156;BME280;10238;49.556;10.956;2022-10-16T07:34:22;98522.59;;;14.62;100.00
20156;BME280;10238;49.556;10.956;2022-10-16T07:37:10;98509.88;;;14.64;100.00
20156;BME280;10238;49.556;10.956;2022-10-16T07:39:58;98518.38;;;14.67;100.00
20156;BME280;10238;49.556;10.956;2022-10-16T07:42:47;98515.63;;;14.75;100.00
20156;BME280;10238;49.556;10.956;2022-10-16T07:45:35;98506.91;;;14.81;100.00
20156;BME280;10238;49.556;10.956;2022-10-16T07:48:26;98512.22;;;14.89;100.00
20156;BME280;10238;49.556;10.956;2022-10-16T07:51:16;98515.19;;;14.94;100.00
20156;BME280;10238;49.556;10.956;2022-10-16T07:54:04;98528.69;;;15.01;100.00
20156;BME280;10238;49.556;10.956;2022-10-16T07:56:52;98528.81;;;15.07;100.00
20156;BME280;10238;49.556;10.956;2022-10-16T07:59:42;98545.84;;;15.14;100.00
20156;BME280;10238;49.556;10.956;2022-10-16T08:02:31;98545.13;;;15.21;100.00
20156;BME280;10238;49.556;10.956;2022-10-16T08:05:19;98539.03;;;15.27;100.00
20156;BME280;10238;49.556;10.956;2022-10-16T08:08:10;98543.03;;;15.31;100.00
20156;BME280;10238;49.556;10.956;2022-10-16T08:10:59;98546.84;;;15.36;100.00
20156;BME280;10238;49.556;10.956;2022-10-16T08:13:49;98547.16;;;15.41;100.00
20156;BME280;10238;49.556;10.956;2022-10-16T08:16:38;98547.63;;;15.45;100.00
20156;BME280;10238;49.556;10.956;2022-10-16T08:19:27;98548.94;;;15.49;100.00
20156;BME280;10238;49.556;10.956;2022-10-16T08:22:15;98547.22;;;15.56;100.00
20156;BME280;10238;49.556;10.956;2022-10-16T08:25:03;98543.59;;;15.63;100.00
20156;BME280;10238;49.556;10.956;2022-10-16T08:27:51;98549.75;;;15.72;100.00
20156;BME280;10238;49.556;10.956;2022-10-16T08:30:39;98551.13;;;15.82;100.00
20156;BME280;10238;49.556;10.956;2022-10-16T08:33:28;98541.81;;;15.93;100.00
20156;BME280;10238;49.556;10.956;2022-10-16T08:36:16;98539.97;;;16.08;100.00
20156;BME280;10238;49.556;10.956;2022-10-16T08:39:04;98541.81;;;16.22;100.00
20156;BME280;10238;49.556;10.956;2022-10-16T08:42:16;98542.53;;;16.30;100.00
20156;BME280;10238;49.556;10.956;2022-10-16T08:45:25;98541.94;;;16.43;100.00
20156;BME280;10238;49.556;10.956;2022-10-16T08:48:21;98551.91;;;16.49;100.00
20156;BME280;10238;49.556;10.956;2022-10-16T08:51:19;98537.94;;;16.53;100.00
20156;BME280;10238;49.556;10.956;2022-10-16T08:54:18;98543.75;;;16.57;100.00
20156;BME280;10238;49.556;10.956;2022-10-16T08:57:11;98539.28;;;16.64;100.00
20156;BME280;10238;49.556;10.956;2022-10-16T09:00:05;98531.78;;;16.74;100.00
20156;BME280;10238;49.556;10.956;2022-10-16T09:03:06;98534.81;;;16.85;100.00
20156;BME280;10238;49.556;10.956;2022-10-16T09:06:19;98530.63;;;16.97;100.00
20156;BME280;10238;49.556;10.956;2022-10-16T09:09:22;98531.31;;;17.06;100.00
20156;BME280;10238;49.556;10.956;2022-10-16T09:12:15;98532.97;;;17.07;100.00
20156;BME280;10238;49.556;10.956;2022-10-16T09:15:07;98527.69;;;17.13;100.00
20156;BME280;10238;49.556;10.956;2022-10-16T09:18:05;98529.56;;;17.19;100.00
20156;BME280;10238;49.556;10.956;2022-10-16T09:21:00;98527.16;;;17.24;100.00
20156;BME280;10238;49.556;10.956;2022-10-16T09:23:54;98527.03;;;17.33;100.00
20156;BME280;10238;49.556;10.956;2022-10-16T09:26:44;98535.34;;;17.38;100.00
20156;BME280;10238;49.556;10.956;2022-10-16T09:29:32;98532.84;;;17.36;100.00
20156;BME280;10238;49.556;10.956;2022-10-16T09:32:21;98532.84;;;17.36;100.00
20156;BME280;10238;49.556;10.956;2022-10-16T09:35:15;98532.00;;;17.36;100.00
20156;BME280;10238;49.556;10.956;2022-10-16T09:38:04;98540.28;;;17.34;100.00
20156;BME280;10238;49.556;10.956;2022-10-16T09:40:54;98532.84;;;17.36;100.00
20156;BME280;10238;49.556;10.956;2022-10-16T09:43:52;98543.00;;;17.41;100.00
20156;BME280;10238;49.556;10.956;2022-10-16T09:46:42;98546.19;;;17.44;100.00
20156;BME280;10238;49.556;10.956;2022-10-16T09:49:30;98548.03;;;17.44;100.00
20156;BME280;10238;49.556;10.956;2022-10-16T09:52:19;98552.19;;;17.46;100.00
20156;BME280;10238;49.556;10.956;2022-10-16T09:55:14;98544.13;;;17.46;100.00
20156;BME280;10238;49.556;10.956;2022-10-16T09:58:13;98543.34;;;17.52;100.00
20156;BME280;10238;49.556;10.956;2022-10-16T10:01:01;98550.63;;;17.58;100.00
20156;BME280;10238;49.556;10.956;2022-10-16T10:03:49;98552.59;;;17.71;100.00
20156;BME280;10238;49.556;10.956;2022-10-16T10:06:44;98548.13;;;17.78;100.00
20156;BME280;10238;49.556;10.956;2022-10-16T10:09:37;98547.34;;;17.84;100.00
20156;BME280;10238;49.556;10.956;2022-10-16T10:12:27;98541.81;;;17.92;100.00
20156;BME280;10238;49.556;10.956;2022-10-16T10:15:17;98545.81;;;18.02;100.00
20156;BME280;10238;49.556;10.956;2022-10-16T10:18:17;98545.25;;;18.13;100.00
20156;BME280;10238;49.556;10.956;2022-10-16T10:21:12;98545.31;;;18.26;100.00
20156;BME280;10238;49.556;10.956;2022-10-16T10:24:02;98562.41;;;18.40;100.00
20156;BME280;10238;49.556;10.956;2022-10-16T10:26:56;98546.50;;;18.45;100.00
20156;BME280;10238;49.556;10.956;2022-10-16T10:29:53;98541.94;;;18.45;100.00
20156;BME280;10238;49.556;10.956;2022-10-16T10:33:00;98530.38;;;18.51;100.00
20156;BME280;10238;49.556;10.956;2022-10-16T10:36:01;98541.19;;;18.64;100.00
20156;BME280;10238;49.556;10.956;2022-10-16T10:38:56;98537.91;;;18.69;100.00
20156;BME280;10238;49.556;10.956;2022-10-16T10:41:57;98538.53;;;18.71;100.00
20156;BME280;10238;49.556;10.956;2022-10-16T10:45:04;98535.47;;;18.80;100.00
20156;BME280;10238;49.556;10.956;2022-10-16T10:48:11;98537.59;;;18.91;100.00
20156;BME280;10238;49.556;10.956;2022-10-16T10:51:05;98539.66;;;18.96;100.00
20156;BME280;10238;49.556;10.956;2022-10-16T10:54:03;98533.91;;;19.12;100.00
20156;BME280;10238;49.556;10.956;2022-10-16T10:57:03;98533.91;;;19.18;100.00
20156;BME280;10238;49.556;10.956;2022-10-16T11:00:15;98531.69;;;19.35;100.00
20156;BME280;10238;49.556;10.956;2022-10-16T11:03:18;98526.50;;;19.47;100.00
20156;BME280;10238;49.556;10.956;2022-10-16T11:06:15;98536.88;;;19.50;100.00
20156;BME280;10238;49.556;10.956;2022-10-16T11:09:12;98537.28;;;19.47;100.00
20156;BME280;10238;49.556;10.956;2022-10-16T11:12:07;98544.38;;;19.61;100.00
20156;BME280;10238;49.556;10.956;2022-10-16T11:15:03;98546.84;;;19.82;100.00
20156;BME280;10238;49.556;10.956;2022-10-16T11:17:59;98548.50;;;19.96;100.00
20156;BME280;10238;49.556;10.956;2022-10-16T11:20:53;98546.81;;;20.08;100.00
20156;BME280;10238;49.556;10.956;2022-10-16T11:23:44;98530.44;;;20.03;100.00
20156;BME280;10238;49.556;10.956;2022-10-16T11:26:41;98527.72;;;20.09;100.00
20156;BME280;10238;49.556;10.956;2022-10-16T11:29:32;98528.59;;;20.16;100.00
20156;BME280;10238;49.556;10.956;2022-10-16T11:32:25;98531.47;;;20.28;100.00
20156;BME280;10238;49.556;10.956;2022-10-16T11:35:19;98524.59;;;20.32;100.00
20156;BME280;10238;49.556;10.956;2022-10-16T11:38:18;98534.53;;;20.38;100.00
20156;BME280;10238;49.556;10.956;2022-10-16T11:41:15;98534.06;;;20.54;100.00
20156;BME280;10238;49.556;10.956;2022-10-16T11:44:20;98532.94;;;20.74;100.00
20156;BME280;10238;49.556;10.956;2022-10-16T11:47:23;98525.84;;;20.80;100.00
20156;BME280;10238;49.556;10.956;2022-10-16T11:50:37;98519.22;;;20.76;100.00
20156;BME280;10238;49.556;10.956;2022-10-16T11:53:38;98515.25;;;20.78;100.00
20156;BME280;10238;49.556;10.956;2022-10-16T11:56:36;98514.81;;;20.88;100.00
20156;BME280;10238;49.556;10.956;2022-10-16T11:59:34;98516.56;;;21.07;100.00
20156;BME280;10238;49.556;10.956;2022-10-16T12:05:52;98521.97;;;21.69;100.00
20156;BME280;10238;49.556;10.956;2022-10-16T12:08:44;98505.19;;;21.85;100.00
20156;BME280;10238;49.556;10.956;2022-10-16T12:11:38;98511.84;;;22.07;100.00
20156;BME280;10238;49.556;10.956;2022-10-16T12:14:38;98509.69;;;22.34;100.00
20156;BME280;10238;49.556;10.956;2022-10-16T12:17:50;98519.41;;;22.59;100.00
20156;BME280;10238;49.556;10.956;2022-10-16T12:20:38;98514.59;;;22.79;100.00
20156;BME280;10238;49.556;10.956;2022-10-16T12:23:32;98507.59;;;23.01;100.00
20156;BME280;10238;49.556;10.956;2022-10-16T12:26:32;98496.38;;;23.16;100.00
20156;BME280;10238;49.556;10.956;2022-10-16T12:29:28;98488.06;;;23.29;100.00
20156;BME280;10238;49.556;10.956;2022-10-16T12:32:28;98505.31;;;23.58;100.00
20156;BME280;10238;49.556;10.956;2022-10-16T12:35:43;98490.59;;;23.77;100.00
20156;BME280;10238;49.556;10.956;2022-10-16T12:38:38;98477.50;;;23.85;100.00
20156;BME280;10238;49.556;10.956;2022-10-16T12:41:59;98465.44;;;23.81;100.00
20156;BME280;10238;49.556;10.956;2022-10-16T12:44:48;98479.88;;;23.93;100.00
20156;BME280;10238;49.556;10.956;2022-10-16T12:47:46;98486.50;;;23.97;100.00
20156;BME280;10238;49.556;10.956;2022-10-16T12:50:42;98489.13;;;24.04;100.00
20156;BME280;10238;49.556;10.956;2022-10-16T12:53:34;98470.50;;;23.89;100.00
20156;BME280;10238;49.556;10.956;2022-10-16T12:56:36;98484.38;;;23.99;100.00
20156;BME280;10238;49.556;10.956;2022-10-16T12:59:42;98475.38;;;24.10;100.00
20156;BME280;10238;49.556;10.956;2022-10-16T13:02:49;98488.25;;;24.15;100.00
20156;BME280;10238;49.556;10.956;2022-10-16T13:05:51;98481.44;;;24.01;100.00
20156;BME280;10238;49.556;10.956;2022-10-16T13:09:07;98478.59;;;23.96;100.00
20156;BME280;10238;49.556;10.956;2022-10-16T13:12:11;98471.84;;;23.98;100.00
20156;BME280;10238;49.556;10.956;2022-10-16T13:15:29;98470.69;;;23.94;100.00
20156;BME280;10238;49.556;10.956;2022-10-16T13:18:25;98486.00;;;23.89;100.00
20156;BME280;10238;49.556;10.956;2022-10-16T13:21:28;98471.72;;;23.82;100.00
20156;BME280;10238;49.556;10.956;2022-10-16T13:24:28;98485.88;;;23.84;100.00
20156;BME280;10238;49.556;10.956;2022-10-16T13:27:25;98483.28;;;23.89;100.00
20156;BME280;10238;49.556;10.956;2022-10-16T13:30:19;98477.25;;;23.87;100.00
20156;BME280;10238;49.556;10.956;2022-10-16T13:33:19;98482.59;;;23.82;100.00
20156;BME280;10238;49.556;10.956;2022-10-16T13:36:20;98489.19;;;23.86;100.00
20156;BME280;10238;49.556;10.956;2022-10-16T13:39:12;98485.63;;;23.74;100.00
20156;BME280;10238;49.556;10.956;2022-10-16T13:42:05;98489.88;;;23.70;100.00
20156;BME280;10238;49.556;10.956;2022-10-16T13:44:55;98496.88;;;23.77;100.00
20156;BME280;10238;49.556;10.956;2022-10-16T13:47:43;98498.81;;;23.59;100.00
20156;BME280;10238;49.556;10.956;2022-10-16T13:50:33;98504.84;;;23.49;100.00
20156;BME280;10238;49.556;10.956;2022-10-16T13:53:21;98504.22;;;23.36;100.00
20156;BME280;10238;49.556;10.956;2022-10-16T13:56:12;98509.66;;;23.36;100.00
20156;BME280;10238;49.556;10.956;2022-10-16T13:59:01;98519.09;;;23.45;100.00
20156;BME280;10238;49.556;10.956;2022-10-16T14:01:51;98510.59;;;23.41;100.00
20156;BME280;10238;49.556;10.956;2022-10-16T14:04:41;98515.22;;;23.41;100.00
20156;BME280;10238;49.556;10.956;2022-10-16T14:07:32;98517.81;;;23.47;100.00
20156;BME280;10238;49.556;10.956;2022-10-16T14:10:24;98513.06;;;23.43;100.00
20156;BME280;10238;49.556;10.956;2022-10-16T14:13:18;98501.66;;;23.41;100.00
20156;BME280;10238;49.556;10.956;2022-10-16T14:16:08;98491.69;;;23.23;100.00
20156;BME280;10238;49.556;10.956;2022-10-16T14:18:59;98506.91;;;23.24;100.00
20156;BME280;10238;49.556;10.956;2022-10-16T14:21:47;98512.69;;;23.27;100.00
20156;BME280;10238;49.556;10.956;2022-10-16T14:24:36;98513.59;;;23.21;100.00
20156;BME280;10238;49.556;10.956;2022-10-16T14:27:29;98505.31;;;23.16;100.00
20156;BME280;10238;49.556;10.956;2022-10-16T14:30:19;98502.47;;;23.11;100.00
20156;BME280;10238;49.556;10.956;2022-10-16T14:33:22;98506.84;;;23.12;100.00
20156;BME280;10238;49.556;10.956;2022-10-16T14:36:13;98506.69;;;23.07;100.00
20156;BME280;10238;49.556;10.956;2022-10-16T14:39:03;98506.34;;;23.04;100.00
20156;BME280;10238;49.556;10.956;2022-10-16T14:41:57;98503.75;;;23.09;100.00
20156;BME280;10238;49.556;10.956;2022-10-16T14:44:46;98504.38;;;22.93;100.00
20156;BME280;10238;49.556;10.956;2022-10-16T14:47:38;98514.88;;;22.89;100.00
20156;BME280;10238;49.556;10.956;2022-10-16T14:50:35;98528.56;;;22.94;100.00
20156;BME280;10238;49.556;10.956;2022-10-16T14:53:23;98519.63;;;22.94;100.00